PSMOD KTEX-KAXX
Flight info
| Callsign | PSMOD |
|---|---|
| Flight time | 1h 1m |
| Altitude | 17000 |
| Route | ETL TAS |
| Aircraft | C208/L-SDFGR/C |
Departure
| Time | 2026-04-29 23:36 |
|---|---|
| Airport | Telluride Regional Airport (KTEX) |
Arrival
| Time | 2026-04-30 00:37 |
|---|---|
| Airport | Angel Fire Airport (KAXX) |
| Time | Latitude | Longitude | Altitude | Speed | Heading |
|---|---|---|---|---|---|
| 2026-04-29 23:14 | 37.95438 | -107.90268 | 9069 ft | 0 kts | 105° |
| 2026-04-29 23:27 | 37.95433 | -107.90261 | 9069 ft | 5 kts | 137° |
| 2026-04-29 23:27 | 37.95376 | -107.90189 | 9069 ft | 17 kts | 125° |
| 2026-04-29 23:28 | 37.95338 | -107.90129 | 9069 ft | 0 kts | 128° |
| 2026-04-29 23:33 | 37.95337 | -107.90127 | 9069 ft | 2 kts | 127° |
| 2026-04-29 23:33 | 37.95305 | -107.90123 | 9068 ft | 9 kts | 196° |
| 2026-04-29 23:33 | 37.95237 | -107.90156 | 9064 ft | 6 kts | 258° |
| 2026-04-29 23:34 | 37.95240 | -107.90196 | 9063 ft | 0 kts | 287° |
| 2026-04-29 23:34 | 37.95277 | -107.90367 | 9059 ft | 42 kts | 287° |
| 2026-04-29 23:34 | 37.95389 | -107.90901 | 9047 ft | 82 kts | 285° |
| 2026-04-29 23:35 | 37.95562 | -107.91694 | 9106 ft | 102 kts | 287° |
| 2026-04-29 23:35 | 37.95770 | -107.92631 | 9223 ft | 121 kts | 286° |
| 2026-04-29 23:35 | 37.96034 | -107.93718 | 9346 ft | 136 kts | 291° |
| 2026-04-29 23:35 | 37.96364 | -107.94898 | 9486 ft | 146 kts | 290° |
| 2026-04-29 23:36 | 37.96690 | -107.96148 | 9625 ft | 152 kts | 289° |
| 2026-04-29 23:36 | 37.97003 | -107.97423 | 9758 ft | 153 kts | 289° |
| 2026-04-29 23:36 | 37.97323 | -107.98737 | 9898 ft | 158 kts | 289° |
| 2026-04-29 23:36 | 37.97657 | -108.00076 | 10047 ft | 160 kts | 289° |
| 2026-04-29 23:37 | 37.97991 | -108.01427 | 10232 ft | 162 kts | 289° |
| 2026-04-29 23:37 | 37.98332 | -108.02797 | 10414 ft | 170 kts | 289° |
| 2026-04-29 23:37 | 37.98680 | -108.04208 | 10593 ft | 165 kts | 289° |
| 2026-04-29 23:37 | 37.99026 | -108.05605 | 10765 ft | 166 kts | 289° |
| 2026-04-29 23:38 | 37.99374 | -108.06986 | 10929 ft | 162 kts | 289° |
| 2026-04-29 23:38 | 37.99704 | -108.08335 | 11107 ft | 158 kts | 289° |
| 2026-04-29 23:38 | 38.00031 | -108.09665 | 11283 ft | 158 kts | 289° |
| 2026-04-29 23:38 | 38.00180 | -108.11034 | 11452 ft | 158 kts | 265° |
| 2026-04-29 23:39 | 37.99795 | -108.12320 | 11634 ft | 157 kts | 237° |
| 2026-04-29 23:39 | 37.98973 | -108.13249 | 11805 ft | 162 kts | 211° |
| 2026-04-29 23:39 | 37.97874 | -108.13572 | 11996 ft | 168 kts | 183° |
| 2026-04-29 23:39 | 37.96741 | -108.13149 | 12176 ft | 175 kts | 150° |
| 2026-04-29 23:40 | 37.95895 | -108.12053 | 12352 ft | 177 kts | 127° |
| 2026-04-29 23:40 | 37.95171 | -108.10791 | 12536 ft | 177 kts | 128° |
| 2026-04-29 23:40 | 37.94429 | -108.09541 | 12706 ft | 178 kts | 128° |
| 2026-04-29 23:40 | 37.93694 | -108.08296 | 12879 ft | 176 kts | 128° |
| 2026-04-29 23:41 | 37.92968 | -108.07064 | 13051 ft | 172 kts | 128° |
| 2026-04-29 23:41 | 37.92258 | -108.05861 | 13279 ft | 168 kts | 129° |
| 2026-04-29 23:41 | 37.91563 | -108.04684 | 13517 ft | 165 kts | 129° |
| 2026-04-29 23:41 | 37.90881 | -108.03530 | 13758 ft | 162 kts | 129° |
| 2026-04-29 23:42 | 37.90223 | -108.02414 | 14001 ft | 158 kts | 129° |
| 2026-04-29 23:42 | 37.89571 | -108.01315 | 14225 ft | 156 kts | 129° |
| 2026-04-29 23:42 | 37.88924 | -108.00220 | 14416 ft | 155 kts | 129° |
| 2026-04-29 23:42 | 37.88277 | -107.99126 | 14613 ft | 155 kts | 129° |
| 2026-04-29 23:43 | 37.87630 | -107.98037 | 14808 ft | 154 kts | 129° |
| 2026-04-29 23:43 | 37.86991 | -107.96958 | 15013 ft | 152 kts | 129° |
| 2026-04-29 23:43 | 37.86359 | -107.95892 | 15214 ft | 151 kts | 130° |
| 2026-04-29 23:43 | 37.85731 | -107.94833 | 15412 ft | 150 kts | 130° |
| 2026-04-29 23:44 | 37.85100 | -107.93770 | 15612 ft | 153 kts | 130° |
| 2026-04-29 23:44 | 37.84465 | -107.92696 | 15810 ft | 151 kts | 130° |
| 2026-04-29 23:44 | 37.83839 | -107.91640 | 16001 ft | 151 kts | 130° |
| 2026-04-29 23:44 | 37.83207 | -107.90576 | 16195 ft | 151 kts | 130° |
| 2026-04-29 23:45 | 37.82586 | -107.89527 | 16386 ft | 149 kts | 131° |
| 2026-04-29 23:45 | 37.81967 | -107.88488 | 16578 ft | 148 kts | 130° |
| 2026-04-29 23:45 | 37.81354 | -107.87452 | 16772 ft | 147 kts | 130° |
| 2026-04-29 23:45 | 37.80745 | -107.86432 | 16963 ft | 146 kts | 130° |
| 2026-04-29 23:46 | 37.80104 | -107.85360 | 16969 ft | 159 kts | 130° |
| 2026-04-29 23:46 | 37.79413 | -107.84201 | 16983 ft | 172 kts | 130° |
| 2026-04-29 23:46 | 37.78668 | -107.82952 | 16981 ft | 182 kts | 130° |
| 2026-04-29 23:46 | 37.77901 | -107.81657 | 16975 ft | 186 kts | 130° |
| 2026-04-29 23:47 | 37.77121 | -107.80342 | 16981 ft | 188 kts | 130° |
| 2026-04-29 23:47 | 37.76326 | -107.79006 | 16960 ft | 193 kts | 129° |
| 2026-04-29 23:47 | 37.75524 | -107.77660 | 16969 ft | 192 kts | 130° |
| 2026-04-29 23:47 | 37.74724 | -107.76319 | 16956 ft | 189 kts | 130° |
| 2026-04-29 23:48 | 37.73943 | -107.75011 | 16970 ft | 189 kts | 130° |
| 2026-04-29 23:48 | 37.73137 | -107.73666 | 16955 ft | 194 kts | 130° |
| 2026-04-29 23:48 | 37.72324 | -107.72292 | 16963 ft | 195 kts | 130° |
| 2026-04-29 23:48 | 37.71501 | -107.70912 | 16961 ft | 199 kts | 130° |
| 2026-04-29 23:49 | 37.70667 | -107.69519 | 16954 ft | 198 kts | 130° |
| 2026-04-29 23:49 | 37.69840 | -107.68136 | 16946 ft | 195 kts | 130° |
| 2026-04-29 23:49 | 37.69031 | -107.66786 | 16939 ft | 192 kts | 130° |
| 2026-04-29 23:49 | 37.68228 | -107.65435 | 16944 ft | 193 kts | 130° |
| 2026-04-29 23:50 | 37.67413 | -107.64076 | 16937 ft | 194 kts | 130° |
| 2026-04-29 23:50 | 37.66594 | -107.62712 | 16939 ft | 195 kts | 130° |
| 2026-04-29 23:50 | 37.64938 | -107.59936 | 16941 ft | 198 kts | 130° |
| 2026-04-29 23:51 | 37.64100 | -107.58555 | 16932 ft | 198 kts | 130° |
| 2026-04-29 23:51 | 37.63284 | -107.57192 | 16921 ft | 195 kts | 129° |
| 2026-04-29 23:51 | 37.62480 | -107.55834 | 16927 ft | 192 kts | 130° |
| 2026-04-29 23:51 | 37.61675 | -107.54500 | 16922 ft | 190 kts | 131° |
| 2026-04-29 23:52 | 37.60876 | -107.53172 | 16919 ft | 191 kts | 131° |
| 2026-04-29 23:52 | 37.60064 | -107.51828 | 16923 ft | 197 kts | 130° |
| 2026-04-29 23:52 | 37.59228 | -107.50428 | 16913 ft | 200 kts | 130° |
| 2026-04-29 23:52 | 37.58389 | -107.49027 | 16926 ft | 200 kts | 130° |
| 2026-04-29 23:53 | 37.57548 | -107.47628 | 16922 ft | 200 kts | 130° |
| 2026-04-29 23:53 | 37.56726 | -107.46256 | 16911 ft | 193 kts | 131° |
| 2026-04-29 23:53 | 37.55921 | -107.44921 | 16910 ft | 189 kts | 131° |
| 2026-04-29 23:53 | 37.55117 | -107.43594 | 16918 ft | 192 kts | 131° |
| 2026-04-29 23:54 | 37.54307 | -107.42247 | 16904 ft | 196 kts | 131° |
| 2026-04-29 23:54 | 37.53484 | -107.40887 | 16919 ft | 196 kts | 131° |
| 2026-04-29 23:54 | 37.52667 | -107.39517 | 16912 ft | 194 kts | 131° |
| 2026-04-29 23:54 | 37.51842 | -107.38153 | 16914 ft | 198 kts | 131° |
| 2026-04-29 23:55 | 37.50999 | -107.36759 | 16912 ft | 202 kts | 131° |
| 2026-04-29 23:55 | 37.50155 | -107.35357 | 16910 ft | 200 kts | 131° |
| 2026-04-29 23:55 | 37.49315 | -107.33966 | 16915 ft | 199 kts | 131° |
| 2026-04-29 23:55 | 37.48476 | -107.32580 | 16909 ft | 199 kts | 132° |
| 2026-04-29 23:56 | 37.47640 | -107.31195 | 16908 ft | 198 kts | 133° |
| 2026-04-29 23:56 | 37.46798 | -107.29808 | 16908 ft | 200 kts | 132° |
| 2026-04-29 23:56 | 37.45962 | -107.28415 | 16909 ft | 200 kts | 132° |
| 2026-04-29 23:56 | 37.45110 | -107.27007 | 16909 ft | 202 kts | 133° |
| 2026-04-29 23:57 | 37.44273 | -107.25628 | 16911 ft | 199 kts | 132° |
| 2026-04-29 23:57 | 37.43443 | -107.24255 | 16937 ft | 197 kts | 132° |
| 2026-04-29 23:57 | 37.42610 | -107.22879 | 16943 ft | 199 kts | 132° |
| 2026-04-29 23:57 | 37.41769 | -107.21495 | 16943 ft | 198 kts | 132° |
| 2026-04-29 23:58 | 37.40935 | -107.20116 | 16936 ft | 198 kts | 132° |
| 2026-04-29 23:58 | 37.40104 | -107.18752 | 16937 ft | 196 kts | 133° |
| 2026-04-29 23:58 | 37.39278 | -107.17391 | 16934 ft | 196 kts | 133° |
| 2026-04-29 23:58 | 37.38454 | -107.16024 | 16931 ft | 196 kts | 133° |
| 2026-04-29 23:59 | 37.37628 | -107.14661 | 16931 ft | 196 kts | 133° |
| 2026-04-29 23:59 | 37.36801 | -107.13303 | 16931 ft | 196 kts | 133° |
| 2026-04-29 23:59 | 37.35972 | -107.11939 | 16927 ft | 196 kts | 133° |
| 2026-04-29 23:59 | 37.35155 | -107.10592 | 16928 ft | 196 kts | 133° |
| 2026-04-30 00:00 | 37.34329 | -107.09239 | 16925 ft | 195 kts | 133° |
| 2026-04-30 00:00 | 37.33507 | -107.07884 | 16923 ft | 196 kts | 133° |
| 2026-04-30 00:00 | 37.32679 | -107.06529 | 16921 ft | 195 kts | 133° |
| 2026-04-30 00:00 | 37.31854 | -107.05177 | 16916 ft | 194 kts | 133° |
| 2026-04-30 00:01 | 37.31036 | -107.03830 | 16916 ft | 194 kts | 133° |
| 2026-04-30 00:01 | 37.30495 | -107.02940 | 16914 ft | 193 kts | 133° |
| 2026-04-30 00:01 | 37.29677 | -107.01603 | 16913 ft | 193 kts | 133° |
| 2026-04-30 00:01 | 37.28859 | -107.00265 | 16912 ft | 193 kts | 133° |
| 2026-04-30 00:02 | 37.28043 | -106.98922 | 16914 ft | 193 kts | 133° |
| 2026-04-30 00:02 | 37.27224 | -106.97580 | 16916 ft | 194 kts | 133° |
| 2026-04-30 00:02 | 37.26402 | -106.96234 | 16916 ft | 195 kts | 133° |
| 2026-04-30 00:02 | 37.25563 | -106.94863 | 16923 ft | 201 kts | 133° |
| 2026-04-30 00:03 | 37.24705 | -106.93460 | 16929 ft | 204 kts | 133° |
| 2026-04-30 00:03 | 37.23834 | -106.92034 | 16939 ft | 207 kts | 133° |
| 2026-04-30 00:03 | 37.22951 | -106.90594 | 16941 ft | 209 kts | 133° |
| 2026-04-30 00:03 | 37.22058 | -106.89139 | 16945 ft | 210 kts | 133° |
| 2026-04-30 00:04 | 37.21165 | -106.87676 | 16943 ft | 212 kts | 133° |
| 2026-04-30 00:04 | 37.20266 | -106.86206 | 16947 ft | 212 kts | 133° |
| 2026-04-30 00:04 | 37.19379 | -106.84759 | 16943 ft | 212 kts | 133° |
| 2026-04-30 00:04 | 37.18470 | -106.83277 | 16950 ft | 212 kts | 133° |
| 2026-04-30 00:05 | 37.17569 | -106.81808 | 16959 ft | 213 kts | 133° |
| 2026-04-30 00:05 | 37.16675 | -106.80350 | 16960 ft | 214 kts | 133° |
| 2026-04-30 00:05 | 37.15766 | -106.78867 | 16952 ft | 214 kts | 133° |
| 2026-04-30 00:05 | 37.14871 | -106.77410 | 16936 ft | 215 kts | 133° |
| 2026-04-30 00:06 | 37.13958 | -106.75925 | 16938 ft | 216 kts | 133° |
| 2026-04-30 00:06 | 37.13037 | -106.74430 | 16976 ft | 217 kts | 133° |
| 2026-04-30 00:06 | 37.12134 | -106.72944 | 17004 ft | 211 kts | 133° |
| 2026-04-30 00:06 | 37.11249 | -106.71508 | 17016 ft | 207 kts | 134° |
| 2026-04-30 00:07 | 37.10364 | -106.70083 | 17014 ft | 207 kts | 134° |
| 2026-04-30 00:07 | 37.09480 | -106.68646 | 17013 ft | 208 kts | 133° |
| 2026-04-30 00:07 | 37.08591 | -106.67202 | 17016 ft | 210 kts | 133° |
| 2026-04-30 00:07 | 37.07695 | -106.65746 | 17013 ft | 212 kts | 133° |
| 2026-04-30 00:08 | 37.06791 | -106.64279 | 17006 ft | 214 kts | 133° |
| 2026-04-30 00:08 | 37.05885 | -106.62809 | 16998 ft | 211 kts | 133° |
| 2026-04-30 00:08 | 37.05001 | -106.61373 | 17001 ft | 210 kts | 133° |
| 2026-04-30 00:08 | 37.04106 | -106.59927 | 17001 ft | 210 kts | 134° |
| 2026-04-30 00:09 | 37.03213 | -106.58480 | 16998 ft | 209 kts | 133° |
| 2026-04-30 00:09 | 37.02329 | -106.57041 | 16991 ft | 207 kts | 133° |
| 2026-04-30 00:09 | 37.01451 | -106.55624 | 16995 ft | 206 kts | 134° |
| 2026-04-30 00:09 | 37.00566 | -106.54206 | 16990 ft | 209 kts | 134° |
| 2026-04-30 00:10 | 36.99675 | -106.52763 | 16993 ft | 210 kts | 134° |
| 2026-04-30 00:10 | 36.98777 | -106.51307 | 16990 ft | 212 kts | 134° |
| 2026-04-30 00:10 | 36.97876 | -106.49849 | 16991 ft | 212 kts | 134° |
| 2026-04-30 00:10 | 36.96967 | -106.48383 | 16983 ft | 214 kts | 134° |
| 2026-04-30 00:11 | 36.96050 | -106.46905 | 16983 ft | 216 kts | 133° |
| 2026-04-30 00:11 | 36.95125 | -106.45411 | 16966 ft | 218 kts | 133° |
| 2026-04-30 00:11 | 36.94209 | -106.43935 | 16956 ft | 217 kts | 133° |
| 2026-04-30 00:11 | 36.93285 | -106.42444 | 16962 ft | 217 kts | 133° |
| 2026-04-30 00:12 | 36.92359 | -106.40951 | 16958 ft | 216 kts | 133° |
| 2026-04-30 00:12 | 36.91443 | -106.39471 | 16954 ft | 214 kts | 133° |
| 2026-04-30 00:12 | 36.90532 | -106.38008 | 16955 ft | 213 kts | 134° |
| 2026-04-30 00:12 | 36.89619 | -106.36540 | 16948 ft | 215 kts | 134° |
| 2026-04-30 00:13 | 36.88699 | -106.35062 | 16953 ft | 216 kts | 134° |
| 2026-04-30 00:13 | 36.87772 | -106.33572 | 16945 ft | 218 kts | 134° |
| 2026-04-30 00:13 | 36.86842 | -106.32075 | 16946 ft | 217 kts | 134° |
| 2026-04-30 00:13 | 36.85915 | -106.30585 | 16944 ft | 217 kts | 134° |
| 2026-04-30 00:14 | 36.84987 | -106.29098 | 16946 ft | 217 kts | 134° |
| 2026-04-30 00:14 | 36.84066 | -106.27619 | 16946 ft | 216 kts | 134° |
| 2026-04-30 00:14 | 36.83145 | -106.26140 | 16946 ft | 216 kts | 134° |
| 2026-04-30 00:14 | 36.82219 | -106.24657 | 16928 ft | 217 kts | 134° |
| 2026-04-30 00:15 | 36.81296 | -106.23179 | 16930 ft | 216 kts | 134° |
| 2026-04-30 00:15 | 36.80385 | -106.21720 | 16924 ft | 215 kts | 134° |
| 2026-04-30 00:15 | 36.79464 | -106.20245 | 16925 ft | 215 kts | 134° |
| 2026-04-30 00:15 | 36.78548 | -106.18775 | 16929 ft | 215 kts | 134° |
| 2026-04-30 00:16 | 36.77625 | -106.17301 | 16927 ft | 215 kts | 134° |
| 2026-04-30 00:16 | 36.76696 | -106.15825 | 16930 ft | 216 kts | 134° |
| 2026-04-30 00:16 | 36.75773 | -106.14341 | 16931 ft | 216 kts | 134° |
| 2026-04-30 00:16 | 36.74844 | -106.12856 | 16931 ft | 217 kts | 134° |
| 2026-04-30 00:17 | 36.73913 | -106.11372 | 16931 ft | 217 kts | 134° |
| 2026-04-30 00:17 | 36.72986 | -106.09889 | 16930 ft | 217 kts | 134° |
| 2026-04-30 00:17 | 36.72058 | -106.08411 | 16930 ft | 216 kts | 134° |
| 2026-04-30 00:17 | 36.71133 | -106.06934 | 16927 ft | 217 kts | 134° |
| 2026-04-30 00:18 | 36.70208 | -106.05459 | 16932 ft | 216 kts | 134° |
| 2026-04-30 00:18 | 36.69283 | -106.03985 | 16919 ft | 215 kts | 134° |
| 2026-04-30 00:18 | 36.68357 | -106.02511 | 16915 ft | 216 kts | 134° |
| 2026-04-30 00:18 | 36.67434 | -106.01040 | 16913 ft | 215 kts | 134° |
| 2026-04-30 00:19 | 36.66520 | -105.99587 | 16914 ft | 215 kts | 134° |
| 2026-04-30 00:19 | 36.65598 | -105.98122 | 16915 ft | 216 kts | 134° |
| 2026-04-30 00:19 | 36.64670 | -105.96645 | 16913 ft | 216 kts | 134° |
| 2026-04-30 00:19 | 36.63758 | -105.95189 | 16850 ft | 212 kts | 135° |
| 2026-04-30 00:20 | 36.62837 | -105.93728 | 16649 ft | 216 kts | 134° |
| 2026-04-30 00:20 | 36.61953 | -105.92193 | 16449 ft | 222 kts | 122° |
| 2026-04-30 00:20 | 36.61522 | -105.90327 | 16248 ft | 228 kts | 97° |
| 2026-04-30 00:20 | 36.61657 | -105.88367 | 16050 ft | 228 kts | 72° |
| 2026-04-30 00:21 | 36.62237 | -105.86539 | 15852 ft | 227 kts | 64° |
| 2026-04-30 00:21 | 36.62839 | -105.84751 | 15658 ft | 226 kts | 65° |
| 2026-04-30 00:21 | 36.63436 | -105.82937 | 15460 ft | 227 kts | 65° |
| 2026-04-30 00:21 | 36.64033 | -105.81121 | 15261 ft | 226 kts | 65° |
| 2026-04-30 00:22 | 36.64630 | -105.79313 | 15065 ft | 225 kts | 65° |
| 2026-04-30 00:22 | 36.65226 | -105.77509 | 14863 ft | 225 kts | 65° |
| 2026-04-30 00:22 | 36.65820 | -105.75708 | 14662 ft | 224 kts | 65° |
| 2026-04-30 00:22 | 36.66412 | -105.73913 | 14463 ft | 224 kts | 65° |
| 2026-04-30 00:23 | 36.66999 | -105.72131 | 14240 ft | 220 kts | 65° |
| 2026-04-30 00:23 | 36.67575 | -105.70381 | 13986 ft | 217 kts | 65° |
| 2026-04-30 00:23 | 36.68142 | -105.68656 | 13732 ft | 214 kts | 66° |
| 2026-04-30 00:23 | 36.68707 | -105.66941 | 13480 ft | 213 kts | 66° |
| 2026-04-30 00:24 | 36.69267 | -105.65239 | 13232 ft | 212 kts | 66° |
| 2026-04-30 00:24 | 36.69826 | -105.63535 | 12982 ft | 214 kts | 66° |
| 2026-04-30 00:24 | 36.70389 | -105.61817 | 12789 ft | 212 kts | 66° |
| 2026-04-30 00:24 | 36.70730 | -105.60105 | 12774 ft | 203 kts | 88° |
| 2026-04-30 00:25 | 36.70756 | -105.58372 | 12778 ft | 198 kts | 90° |
| 2026-04-30 00:25 | 36.70807 | -105.56665 | 12774 ft | 197 kts | 89° |
| 2026-04-30 00:25 | 36.70858 | -105.54954 | 12782 ft | 198 kts | 89° |
| 2026-04-30 00:25 | 36.70904 | -105.53243 | 12788 ft | 197 kts | 89° |
| 2026-04-30 00:26 | 36.70947 | -105.51515 | 12779 ft | 201 kts | 90° |
| 2026-04-30 00:26 | 36.70995 | -105.49759 | 12689 ft | 205 kts | 90° |
| 2026-04-30 00:26 | 36.71039 | -105.48000 | 12677 ft | 203 kts | 90° |
| 2026-04-30 00:26 | 36.71084 | -105.46265 | 12690 ft | 198 kts | 89° |
| 2026-04-30 00:27 | 36.71129 | -105.44550 | 12684 ft | 198 kts | 90° |
| 2026-04-30 00:27 | 36.71172 | -105.42834 | 12694 ft | 199 kts | 89° |
| 2026-04-30 00:27 | 36.71217 | -105.41109 | 12693 ft | 199 kts | 89° |
| 2026-04-30 00:27 | 36.71259 | -105.39385 | 12696 ft | 198 kts | 90° |
| 2026-04-30 00:28 | 36.71302 | -105.37667 | 12689 ft | 197 kts | 89° |
| 2026-04-30 00:28 | 36.71344 | -105.36006 | 12683 ft | 192 kts | 89° |
| 2026-04-30 00:28 | 36.71387 | -105.34366 | 12678 ft | 187 kts | 90° |
| 2026-04-30 00:28 | 36.71270 | -105.32782 | 12683 ft | 179 kts | 111° |
| 2026-04-30 00:29 | 36.70700 | -105.31450 | 12594 ft | 170 kts | 135° |
| 2026-04-30 00:29 | 36.69853 | -105.30542 | 12447 ft | 153 kts | 157° |
| 2026-04-30 00:29 | 36.68930 | -105.30084 | 12324 ft | 133 kts | 176° |
| 2026-04-30 00:29 | 36.68089 | -105.29852 | 12286 ft | 117 kts | 175° |
| 2026-04-30 00:30 | 36.67324 | -105.29627 | 12257 ft | 111 kts | 178° |
| 2026-04-30 00:30 | 36.66555 | -105.29416 | 12129 ft | 117 kts | 177° |
| 2026-04-30 00:30 | 36.65734 | -105.29186 | 12015 ft | 124 kts | 176° |
| 2026-04-30 00:30 | 36.64896 | -105.28948 | 11906 ft | 127 kts | 175° |
| 2026-04-30 00:31 | 36.64024 | -105.28701 | 11790 ft | 130 kts | 175° |
| 2026-04-30 00:31 | 36.63135 | -105.28448 | 11671 ft | 132 kts | 175° |
| 2026-04-30 00:31 | 36.62240 | -105.28194 | 11589 ft | 131 kts | 174° |
| 2026-04-30 00:31 | 36.61354 | -105.27940 | 11590 ft | 131 kts | 174° |
| 2026-04-30 00:32 | 36.60461 | -105.27687 | 11552 ft | 134 kts | 174° |
| 2026-04-30 00:32 | 36.59543 | -105.27597 | 11397 ft | 131 kts | 192° |
| 2026-04-30 00:32 | 36.58637 | -105.27696 | 11253 ft | 133 kts | 190° |
| 2026-04-30 00:32 | 36.57700 | -105.27769 | 11110 ft | 136 kts | 191° |
| 2026-04-30 00:33 | 36.56750 | -105.27845 | 10967 ft | 138 kts | 190° |
| 2026-04-30 00:33 | 36.55777 | -105.27926 | 10821 ft | 141 kts | 189° |
| 2026-04-30 00:33 | 36.54791 | -105.28005 | 10665 ft | 143 kts | 190° |
| 2026-04-30 00:33 | 36.53798 | -105.28086 | 10528 ft | 143 kts | 189° |
| 2026-04-30 00:34 | 36.52798 | -105.28166 | 10377 ft | 145 kts | 189° |
| 2026-04-30 00:34 | 36.51878 | -105.28230 | 10252 ft | 118 kts | 189° |
| 2026-04-30 00:34 | 36.51092 | -105.28291 | 10106 ft | 110 kts | 190° |
| 2026-04-30 00:34 | 36.50345 | -105.28353 | 9994 ft | 104 kts | 190° |
| 2026-04-30 00:35 | 36.49653 | -105.28409 | 9980 ft | 96 kts | 191° |
| 2026-04-30 00:35 | 36.49009 | -105.28459 | 9979 ft | 90 kts | 191° |
| 2026-04-30 00:35 | 36.48366 | -105.28494 | 9912 ft | 98 kts | 187° |
| 2026-04-30 00:35 | 36.47658 | -105.28490 | 9782 ft | 105 kts | 185° |
| 2026-04-30 00:36 | 36.46906 | -105.28481 | 9555 ft | 109 kts | 187° |
| 2026-04-30 00:36 | 36.46142 | -105.28586 | 9281 ft | 109 kts | 197° |
| 2026-04-30 00:36 | 36.45393 | -105.28728 | 9046 ft | 109 kts | 192° |
| 2026-04-30 00:36 | 36.44608 | -105.28841 | 8744 ft | 115 kts | 194° |
| 2026-04-30 00:37 | 36.43833 | -105.28902 | 8412 ft | 107 kts | 195° |
| 2026-04-30 00:37 | 36.43154 | -105.28948 | 8338 ft | 86 kts | 185° |
| 2026-04-30 00:37 | 36.42682 | -105.28975 | 8348 ft | 51 kts | 182° |
| 2026-04-30 00:37 | 36.42420 | -105.28986 | 8353 ft | 28 kts | 182° |
| 2026-04-30 00:38 | 36.42223 | -105.28995 | 8357 ft | 31 kts | 183° |
| 2026-04-30 00:38 | 36.42032 | -105.29009 | 8363 ft | 22 kts | 182° |
| 2026-04-30 00:38 | 36.41965 | -105.29057 | 8365 ft | 10 kts | 252° |
| 2026-04-30 00:38 | 36.41975 | -105.29129 | 8364 ft | 6 kts | 302° |
| 2026-04-30 00:39 | 36.42043 | -105.29134 | 8363 ft | 13 kts | 2° |
| 2026-04-30 00:39 | 36.42081 | -105.29133 | 8362 ft | 0 kts | 1° |